Time;durP1;ratioP1;P1;durP2;ratioP2;P2;SDS_P1;SDS_P2;PMS_P1;PMS_P2;Temp;Humidity;BMP_temperature;BMP_pressure;BME280_temperature;BME280_humidity;BME280_pressure;Samples;Min_cycle;Max_cycle;Signal;HPM_P1;HPM_P2
2021/07/10 00:04:24;;;;;;;6.27;5.67;;;18.90;46.50;;;;;;10450974;28;20228;-74
2021/07/10 00:09:28;;;;;;;7.33;4.90;;;18.80;46.90;;;;;;10455152;28;20235;-74
2021/07/10 00:14:32;;;;;;;5.23;4.83;;;18.70;47.60;;;;;;10458551;28;20224;-74
2021/07/10 00:19:35;;;;;;;6.07;5.57;;;18.70;48.20;;;;;;10438405;28;20236;-74
2021/07/10 00:24:39;;;;;;;4.90;4.60;;;18.70;47.60;;;;;;10449746;28;20235;-74
2021/07/10 00:29:43;;;;;;;8.40;5.47;;;18.70;47.60;;;;;;10453397;28;20232;-74
2021/07/10 00:34:46;;;;;;;35.10;5.63;;;18.80;47.70;;;;;;10445455;28;20229;-74
2021/07/10 00:39:50;;;;;;;4.67;4.37;;;18.80;47.30;;;;;;10447461;28;20226;-74
2021/07/10 00:44:53;;;;;;;4.53;4.23;;;18.70;47.60;;;;;;10448003;28;20268;-74
2021/07/10 00:49:56;;;;;;;15.70;4.37;;;18.60;47.50;;;;;;10452312;28;20232;-74
2021/07/10 00:55:01;;;;;;;5.13;4.73;;;18.60;47.50;;;;;;10451976;28;20235;-74
2021/07/10 01:00:08;;;;;;;5.77;4.90;;;18.60;47.50;;;;;;10462667;28;20748;-74
2021/07/10 01:05:15;;;;;;;4.10;3.70;;;18.60;47.50;;;;;;10462427;28;20231;-74
2021/07/10 01:10:20;;;;;;;5.07;4.67;;;18.60;47.50;;;;;;10460606;28;20228;-74
2021/07/10 01:15:25;;;;;;;4.30;3.93;;;18.70;47.60;;;;;;10466202;28;20229;-74
2021/07/10 01:20:30;;;;;;;3.80;3.60;;;18.70;47.50;;;;;;10452291;28;20240;-74
2021/07/10 01:25:35;;;;;;;3.20;3.00;;;18.70;47.40;;;;;;10450488;28;20227;-74
2021/07/10 01:30:39;;;;;;;4.13;3.93;;;18.60;47.40;;;;;;10458783;28;20319;-74
2021/07/10 01:35:43;;;;;;;4.37;3.97;;;18.70;47.60;;;;;;10452868;28;20263;-74
2021/07/10 01:40:47;;;;;;;3.07;2.90;;;18.70;47.30;;;;;;10461015;28;20236;-74
2021/07/10 01:45:51;;;;;;;2.70;2.60;;;18.70;47.10;;;;;;10452491;28;20214;-74
2021/07/10 01:50:54;;;;;;;5.13;3.67;;;18.60;47.00;;;;;;10444926;28;20231;-74
2021/07/10 01:55:58;;;;;;;17.63;3.70;;;18.60;47.00;;;;;;10454289;28;20217;-74
2021/07/10 02:01:02;;;;;;;12.70;4.20;;;18.50;46.30;;;;;;10456432;28;20217;-72
2021/07/10 02:06:05;;;;;;;4.20;3.90;;;18.40;46.30;;;;;;10449088;28;20225;-74
2021/07/10 02:11:10;;;;;;;4.20;3.23;;;18.20;46.70;;;;;;10445793;28;20229;-74
2021/07/10 02:16:13;;;;;;;14.33;3.07;;;18.10;47.10;;;;;;10448586;28;20250;-74
2021/07/10 02:21:17;;;;;;;28.23;3.30;;;18.00;47.00;;;;;;10456543;28;20304;-74
2021/07/10 02:26:22;;;;;;;21.67;3.30;;;17.90;46.90;;;;;;10447751;28;20216;-74
2021/07/10 02:31:25;;;;;;;11.57;3.50;;;17.80;46.80;;;;;;10447931;28;20233;-74
2021/07/10 02:36:28;;;;;;;12.50;3.40;;;17.80;46.80;;;;;;10447544;28;20228;-74
2021/07/10 02:41:33;;;;;;;3.57;3.27;;;17.70;47.10;;;;;;10455418;28;20704;-74
2021/07/10 02:46:37;;;;;;;3.67;3.47;;;17.60;47.40;;;;;;10448919;28;20220;-74
2021/07/10 02:51:40;;;;;;;3.80;3.60;;;17.60;47.30;;;;;;10454298;28;20275;-74
2021/07/10 02:56:44;;;;;;;4.90;3.53;;;17.60;47.60;;;;;;10440576;28;20224;-74
2021/07/10 03:01:47;;;;;;;3.33;3.13;;;17.60;47.90;;;;;;10439696;28;20228;-74
2021/07/10 03:06:51;;;;;;;3.20;3.00;;;17.70;47.90;;;;;;10447214;28;20249;-74
2021/07/10 03:11:57;;;;;;;3.60;3.30;;;17.70;47.70;;;;;;10453976;28;20237;-71
2021/07/10 03:17:00;;;;;;;3.43;2.97;;;17.70;48.00;;;;;;10449090;28;20229;-71
2021/07/10 03:22:03;;;;;;;5.60;3.30;;;17.70;47.70;;;;;;10453279;28;20216;-72
2021/07/10 03:27:10;;;;;;;9.23;3.30;;;17.80;47.80;;;;;;10456549;28;20216;-71
2021/07/10 03:32:13;;;;;;;25.47;3.30;;;17.80;47.70;;;;;;10450412;28;20225;-71
2021/07/10 03:37:16;;;;;;;3.20;2.90;;;17.80;47.00;;;;;;10447266;28;20600;-71
2021/07/10 03:42:21;;;;;;;2.77;2.57;;;17.80;47.00;;;;;;10445506;28;20758;-71
2021/07/10 03:47:24;;;;;;;4.53;2.97;;;17.70;47.50;;;;;;10450939;28;20225;-72
2021/07/10 03:52:27;;;;;;;26.63;3.37;;;17.70;47.50;;;;;;10455025;28;20228;-72
2021/07/10 03:57:31;;;;;;;2.57;2.47;;;17.70;47.30;;;;;;10450687;28;20749;-71
2021/07/10 04:02:35;;;;;;;2.30;2.20;;;17.70;47.30;;;;;;10450150;28;20317;-71
2021/07/10 04:07:38;;;;;;;3.07;2.97;;;17.70;47.40;;;;;;10453003;28;20232;-71
2021/07/10 04:12:43;;;;;;;6.70;2.97;;;17.70;47.50;;;;;;10448855;28;20594;-71
2021/07/10 04:17:47;;;;;;;4.07;2.80;;;17.80;47.70;;;;;;10447388;28;20235;-71
2021/07/10 04:22:51;;;;;;;5.20;2.70;;;17.80;47.50;;;;;;10448839;28;20226;-71
2021/07/10 04:27:55;;;;;;;2.70;2.60;;;17.70;47.20;;;;;;10453332;28;20229;-71
2021/07/10 04:32:58;;;;;;;2.90;2.70;;;17.70;47.60;;;;;;10442056;28;20223;-71
2021/07/10 04:38:01;;;;;;;3.63;3.33;;;17.70;47.60;;;;;;10452351;28;20232;-72
2021/07/10 04:43:06;;;;;;;3.77;3.47;;;17.70;47.80;;;;;;10459551;28;20228;-71
2021/07/10 04:48:10;;;;;;;4.30;3.90;;;17.70;48.00;;;;;;10460190;28;20220;-72
2021/07/10 04:53:13;;;;;;;4.00;3.70;;;17.80;48.00;;;;;;10458085;28;20224;-71
2021/07/10 04:58:17;;;;;;;4.27;3.97;;;17.80;48.00;;;;;;10455909;28;20245;-71
2021/07/10 05:03:20;;;;;;;4.60;3.93;;;17.80;48.30;;;;;;10457459;28;20235;-71
2021/07/10 05:08:23;;;;;;;3.50;3.20;;;17.80;48.20;;;;;;10461934;28;20239;-71
2021/07/10 05:13:28;;;;;;;4.37;3.67;;;17.90;48.30;;;;;;10455951;28;20250;-71
2021/07/10 05:18:32;;;;;;;4.50;4.20;;;17.90;48.50;;;;;;10458984;28;20232;-71
2021/07/10 05:23:36;;;;;;;5.20;4.70;;;18.00;48.40;;;;;;10450783;28;20713;-71
2021/07/10 05:28:40;;;;;;;7.10;5.93;;;18.00;48.40;;;;;;10456549;28;20232;-71
2021/07/10 05:33:43;;;;;;;11.47;7.03;;;18.10;49.10;;;;;;10454004;28;20236;-71
2021/07/10 05:38:46;;;;;;;9.60;7.50;;;18.10;49.10;;;;;;10456198;28;20237;-71
2021/07/10 05:43:51;;;;;;;8.43;7.57;;;18.20;49.20;;;;;;10450833;28;20240;-71
2021/07/10 05:48:54;;;;;;;8.73;7.83;;;18.20;49.70;;;;;;10452640;28;20723;-71
2021/07/10 05:53:57;;;;;;;16.87;7.57;;;18.30;49.50;;;;;;10455887;28;20224;-71
2021/07/10 05:59:02;;;;;;;8.40;7.50;;;18.30;49.60;;;;;;10453499;28;20229;-71
2021/07/10 06:04:05;;;;;;;18.07;8.00;;;18.30;49.70;;;;;;10452840;28;20693;-71
2021/07/10 06:09:08;;;;;;;9.43;7.87;;;18.40;49.70;;;;;;10446329;28;20721;-71
2021/07/10 06:14:13;;;;;;;9.83;8.63;;;18.40;49.90;;;;;;10451665;28;20228;-71
2021/07/10 06:19:20;;;;;;;10.43;8.83;;;18.40;50.60;;;;;;10455613;28;20224;-71
2021/07/10 06:24:23;;;;;;;10.47;9.47;;;18.50;50.40;;;;;;10450497;28;20228;-71
2021/07/10 06:29:28;;;;;;;11.53;10.20;;;18.60;50.50;;;;;;10451388;28;20236;-71
2021/07/10 06:34:31;;;;;;;10.07;9.10;;;18.60;50.90;;;;;;10448176;28;20224;-71
2021/07/10 06:39:34;;;;;;;12.60;10.43;;;18.60;50.50;;;;;;10451976;28;20229;-71
2021/07/10 06:44:39;;;;;;;11.97;10.77;;;18.70;50.90;;;;;;10455132;28;20232;-71
2021/07/10 06:49:42;;;;;;;12.50;11.40;;;18.80;51.70;;;;;;10451127;28;20228;-70
2021/07/10 06:54:45;;;;;;;11.57;10.43;;;18.90;51.40;;;;;;10456724;28;20237;-71
2021/07/10 06:59:49;;;;;;;12.37;11.17;;;19.00;51.50;;;;;;10453277;28;20240;-71
2021/07/10 07:04:52;;;;;;;14.33;13.13;;;19.00;52.00;;;;;;10452608;28;20221;-70
2021/07/10 07:09:56;;;;;;;14.33;13.03;;;19.10;51.80;;;;;;10451477;28;20232;-70
2021/07/10 07:15:00;;;;;;;13.73;12.33;;;19.20;52.00;;;;;;10450997;28;20231;-70
2021/07/10 07:20:06;;;;;;;13.77;12.57;;;19.30;52.80;;;;;;10453686;28;20646;-71
2021/07/10 07:25:14;;;;;;;14.07;12.77;;;19.40;52.90;;;;;;10449723;28;21025;-71
2021/07/10 07:30:20;;;;;;;14.00;12.70;;;19.60;52.30;;;;;;10449018;28;20224;-70
2021/07/10 07:35:23;;;;;;;12.77;11.67;;;19.70;52.90;;;;;;10452270;28;20224;-70
2021/07/10 07:40:27;;;;;;;12.27;11.33;;;19.80;52.10;;;;;;10450862;28;20232;-70
2021/07/10 07:45:32;;;;;;;13.37;12.20;;;19.90;52.20;;;;;;10455506;28;20236;-70
2021/07/10 07:50:35;;;;;;;12.43;11.43;;;20.10;53.10;;;;;;10450347;28;20256;-70
2021/07/10 07:55:38;;;;;;;10.53;9.67;;;20.30;52.60;;;;;;10454697;28;20594;-70
2021/07/10 08:00:43;;;;;;;9.73;8.93;;;20.50;52.10;;;;;;10446750;28;20248;-70
2021/07/10 08:05:46;;;;;;;9.13;8.47;;;20.70;51.90;;;;;;10452342;28;20236;-70
2021/07/10 08:10:49;;;;;;;8.43;7.73;;;20.90;51.90;;;;;;10455983;28;20623;-70
2021/07/10 08:15:54;;;;;;;8.03;7.23;;;21.10;51.70;;;;;;10446459;28;20582;-70
2021/07/10 08:20:57;;;;;;;8.27;7.60;;;21.30;50.90;;;;;;10451087;28;20227;-70
2021/07/10 08:26:01;;;;;;;8.63;7.83;;;21.60;50.10;;;;;;10451624;28;20243;-70
2021/07/10 08:31:05;;;;;;;9.63;8.83;;;21.80;50.40;;;;;;10452446;28;20225;-70
2021/07/10 08:36:09;;;;;;;9.00;8.30;;;21.90;49.30;;;;;;10446452;28;20604;-70
2021/07/10 08:41:13;;;;;;;10.23;9.43;;;22.00;49.90;;;;;;10449887;28;20228;-70
2021/07/10 08:46:20;;;;;;;10.30;9.47;;;22.10;49.40;;;;;;10451639;28;20591;-70
2021/07/10 08:51:23;;;;;;;9.53;8.73;;;22.20;48.90;;;;;;10449830;28;20268;-70
2021/07/10 08:56:28;;;;;;;9.20;8.40;;;22.30;48.90;;;;;;10456452;28;20232;-69
2021/07/10 09:01:32;;;;;;;8.20;7.60;;;22.30;48.70;;;;;;10452926;28;20235;-70
2021/07/10 09:06:36;;;;;;;8.20;7.43;;;22.50;48.60;;;;;;10450345;28;20267;-69
2021/07/10 09:11:40;;;;;;;8.30;7.67;;;22.70;48.70;;;;;;10444880;28;20757;-69
2021/07/10 09:16:45;;;;;;;7.87;7.27;;;22.90;48.00;;;;;;10444394;28;20734;-69
2021/07/10 09:21:50;;;;;;;7.67;6.97;;;23.10;47.50;;;;;;10448849;28;20233;-69
2021/07/10 09:26:56;;;;;;;7.43;6.83;;;23.30;47.70;;;;;;10457761;28;20995;-69
2021/07/10 09:32:04;;;;;;;6.40;5.83;;;23.50;47.20;;;;;;10451670;28;20232;-69
2021/07/10 09:37:09;;;;;;;6.57;6.10;;;23.70;46.80;;;;;;10460471;28;20235;-69
2021/07/10 09:42:14;;;;;;;7.53;6.93;;;23.90;46.50;;;;;;10453046;28;20230;-70
2021/07/10 09:47:25;;;;;;;6.33;5.93;;;24.10;46.00;;;;;;10457176;28;20220;-69
2021/07/10 09:52:31;;;;;;;6.23;5.47;;;24.30;44.80;;;;;;10459483;28;20224;-69
2021/07/10 09:57:36;;;;;;;4.90;4.60;;;24.50;46.30;;;;;;10447651;28;20228;-69
2021/07/10 10:02:44;;;;;;;5.07;4.77;;;24.70;45.00;;;;;;10454777;28;20780;-69
2021/07/10 10:07:49;;;;;;;5.40;4.90;;;24.90;43.80;;;;;;10449774;28;20248;-69
2021/07/10 10:13:13;;;;;;;5.30;4.90;;;25.10;44.60;;;;;;10447782;28;20230;-69
2021/07/10 10:18:20;;;;;;;4.40;4.10;;;25.30;43.60;;;;;;10447052;28;20234;-69
2021/07/10 10:23:24;;;;;;;4.13;3.83;;;25.40;43.10;;;;;;10446834;28;20754;-69
2021/07/10 10:28:32;;;;;;;3.60;3.40;;;25.60;43.10;;;;;;10454823;28;20229;-69
2021/07/10 10:33:37;;;;;;;3.87;3.67;;;25.80;42.00;;;;;;10446870;28;20220;-69
2021/07/10 10:38:40;;;;;;;3.90;3.70;;;26.00;41.50;;;;;;10447224;28;20237;-69
2021/07/10 10:43:44;;;;;;;3.60;3.40;;;26.10;42.40;;;;;;10450210;28;20382;-69
2021/07/10 10:48:49;;;;;;;3.63;3.40;;;26.30;41.80;;;;;;10459249;28;20232;-69
2021/07/10 10:53:52;;;;;;;4.17;3.80;;;26.30;41.10;;;;;;10452755;28;20223;-69
2021/07/10 10:58:55;;;;;;;3.73;3.43;;;26.40;41.60;;;;;;10443090;28;20247;-74
2021/07/10 11:04:00;;;;;;;3.60;3.30;;;26.40;41.10;;;;;;10425860;28;20216;-70
2021/07/10 11:09:03;;;;;;;3.50;3.20;;;26.60;40.20;;;;;;10449414;28;20645;-71
2021/07/10 11:14:30;;;;;;;4.47;3.37;;;26.70;41.20;;;;;;10454266;28;20237;-70
2021/07/10 11:19:59;;;;;;;3.43;3.23;;;26.80;40.20;;;;;;10449100;28;20233;-70
2021/07/10 11:25:03;;;;;;;3.60;3.40;;;27.00;39.60;;;;;;10406884;28;20606;-70
2021/07/10 11:30:19;;;;;;;3.60;3.40;;;27.10;39.80;;;;;;10402262;28;20610;-69
2021/07/10 11:35:36;;;;;;;3.50;3.30;;;27.20;38.00;;;;;;10422183;28;20350;-69
2021/07/10 11:40:41;;;;;;;3.23;3.03;;;27.20;37.70;;;;;;10442797;28;20570;-68
2021/07/10 11:45:49;;;;;;;3.63;3.43;;;27.30;38.50;;;;;;10437548;28;20236;-69
2021/07/10 11:51:11;;;;;;;3.30;3.10;;;27.40;37.70;;;;;;10441331;28;20216;-69
2021/07/10 11:56:15;;;;;;;3.20;3.00;;;27.60;36.70;;;;;;10446031;28;20223;-69
2021/07/10 12:01:24;;;;;;;3.17;2.97;;;27.70;38.30;;;;;;10447205;28;20232;-69
2021/07/10 12:06:29;;;;;;;3.50;3.20;;;27.80;38.30;;;;;;10440490;28;20598;-69
2021/07/10 12:11:33;;;;;;;3.20;3.00;;;27.90;37.10;;;;;;10444170;28;20220;-69
2021/07/10 12:16:37;;;;;;;3.30;3.10;;;28.00;37.80;;;;;;10443992;28;20231;-69
2021/07/10 12:21:41;;;;;;;3.63;3.43;;;28.10;37.20;;;;;;10441015;28;20278;-70
2021/07/10 12:26:45;;;;;;;3.50;3.30;;;28.10;36.10;;;;;;10435633;28;20224;-69
2021/07/10 12:31:48;;;;;;;3.07;2.87;;;28.10;36.30;;;;;;10446082;28;20221;-74
2021/07/10 12:36:53;;;;;;;3.10;2.90;;;28.00;36.80;;;;;;10443735;28;20237;-74
2021/07/10 12:41:58;;;;;;;3.20;2.90;;;28.10;35.70;;;;;;10444202;28;20768;-73
2021/07/10 12:47:07;;;;;;;3.37;3.10;;;28.10;36.40;;;;;;10441687;28;20228;-73
2021/07/10 12:52:22;;;;;;;3.10;2.90;;;28.20;34.90;;;;;;10446026;28;20220;-73
2021/07/10 12:57:34;;;;;;;3.20;3.00;;;28.30;34.50;;;;;;10449975;28;20228;-72
2021/07/10 13:02:39;;;;;;;3.00;2.80;;;28.40;34.40;;;;;;10453492;28;20225;-73
2021/07/10 13:07:45;;;;;;;2.50;2.40;;;28.50;34.40;;;;;;10451322;28;20233;-74
2021/07/10 13:12:51;;;;;;;2.73;2.63;;;28.50;33.40;;;;;;10445273;28;20572;-73
2021/07/10 13:18:20;;;;;;;2.60;2.50;;;28.50;33.90;;;;;;10457046;28;20233;-73
2021/07/10 13:23:30;;;;;;;2.70;2.50;;;28.50;33.20;;;;;;10453825;28;20228;-72
2021/07/10 13:28:40;;;;;;;2.20;2.10;;;28.50;32.20;;;;;;10449226;28;20228;-74
2021/07/10 13:33:45;;;;;;;2.43;2.30;;;28.50;32.40;;;;;;10451107;28;20850;-73
2021/07/10 13:38:51;;;;;;;2.87;2.20;;;28.50;33.00;;;;;;10456883;28;20225;-73
2021/07/10 13:44:24;;;;;;;2.40;2.30;;;28.60;31.50;;;;;;10457377;28;20641;-73
2021/07/10 13:49:35;;;;;;;2.90;2.70;;;28.50;32.20;;;;;;10449775;28;20232;-73
2021/07/10 13:54:44;;;;;;;2.17;2.07;;;28.60;31.00;;;;;;10450176;28;20332;-75
2021/07/10 13:59:59;;;;;;;2.30;2.20;;;28.60;31.60;;;;;;10451182;28;20232;-74
2021/07/10 14:05:08;;;;;;;2.57;2.17;;;28.70;31.10;;;;;;10455105;28;20236;-73
2021/07/10 14:10:16;;;;;;;2.50;2.40;;;28.70;30.70;;;;;;10447667;28;20228;-74
2021/07/10 14:15:19;;;;;;;2.10;2.00;;;28.80;30.70;;;;;;10453675;28;20217;-74
2021/07/10 14:20:24;;;;;;;2.30;2.20;;;28.80;32.20;;;;;;10445183;28;20261;-74
2021/07/10 14:25:49;;;;;;;2.07;1.97;;;28.90;30.80;;;;;;10450991;28;20236;-75
2021/07/10 14:30:53;;;;;;;2.43;2.23;;;28.90;30.80;;;;;;10452059;28;20233;-74
2021/07/10 14:35:56;;;;;;;1.80;1.70;;;28.90;31.00;;;;;;10454045;28;20224;-75
2021/07/10 14:41:01;;;;;;;1.90;1.80;;;28.90;30.80;;;;;;10455816;28;20225;-74
2021/07/10 14:46:05;;;;;;;1.67;1.57;;;28.90;29.70;;;;;;10450351;28;20232;-74
2021/07/10 14:51:08;;;;;;;1.60;1.50;;;28.90;29.80;;;;;;10456121;28;20235;-74
2021/07/10 14:56:13;;;;;;;1.60;1.50;;;28.80;29.50;;;;;;10442409;28;20224;-74
2021/07/10 15:01:16;;;;;;;1.70;1.60;;;28.80;28.80;;;;;;10447736;28;20224;-74
2021/07/10 15:06:19;;;;;;;1.70;1.60;;;28.80;29.20;;;;;;10453539;28;20224;-74
2021/07/10 15:11:24;;;;;;;1.90;1.80;;;28.90;29.00;;;;;;10450878;28;20621;-76
2021/07/10 15:16:28;;;;;;;1.90;1.80;;;28.90;28.20;;;;;;10450742;28;20225;-77
2021/07/10 15:21:32;;;;;;;1.60;1.60;;;28.90;29.00;;;;;;10448313;28;20227;-76
2021/07/10 15:26:37;;;;;;;1.70;1.60;;;28.90;28.50;;;;;;10448229;28;20235;-77
2021/07/10 15:31:41;;;;;;;2.80;2.03;;;28.90;27.40;;;;;;10444221;28;20325;-76
2021/07/10 15:36:44;;;;;;;1.70;1.60;;;28.90;28.30;;;;;;10438486;28;20225;-77
2021/07/10 15:41:49;;;;;;;2.13;2.00;;;28.90;28.40;;;;;;10440752;28;20244;-77
2021/07/10 15:46:52;;;;;;;2.70;1.80;;;29.00;27.70;;;;;;10453589;28;20265;-77
2021/07/10 15:51:55;;;;;;;1.90;1.80;;;29.00;28.10;;;;;;10445839;28;20228;-74
2021/07/10 15:57:00;;;;;;;1.80;1.70;;;29.10;27.80;;;;;;10445731;28;20224;-74
2021/07/10 16:02:04;;;;;;;7.30;6.60;;;29.20;27.10;;;;;;10441886;28;20248;-74
2021/07/10 16:07:11;;;;;;;3.00;2.77;;;29.20;27.60;;;;;;10444271;28;20225;-74
2021/07/10 16:12:16;;;;;;;2.50;2.37;;;29.30;27.60;;;;;;10443871;28;20236;-74
2021/07/10 16:17:19;;;;;;;2.43;2.23;;;29.40;27.20;;;;;;10449096;28;20221;-74
2021/07/10 16:22:22;;;;;;;2.30;2.10;;;29.50;27.90;;;;;;10444779;28;20241;-74
2021/07/10 16:27:26;;;;;;;2.00;1.90;;;29.50;27.40;;;;;;10449867;28;20233;-74
2021/07/10 16:32:30;;;;;;;2.90;1.80;;;29.60;26.70;;;;;;10453685;28;20239;-74
2021/07/10 16:37:33;;;;;;;1.93;1.83;;;29.80;27.30;;;;;;10460194;28;20217;-74
2021/07/10 16:42:38;;;;;;;2.47;2.27;;;29.80;27.10;;;;;;10454397;28;20647;-75
2021/07/10 16:48:01;;;;;;;2.20;2.10;;;29.90;26.50;;;;;;10458042;28;20221;-75
2021/07/10 16:53:06;;;;;;;2.83;2.63;;;29.90;27.10;;;;;;10455078;28;20231;-73
2021/07/10 16:58:11;;;;;;;2.03;1.93;;;29.90;26.60;;;;;;10449720;28;20221;-74
2021/07/10 17:03:14;;;;;;;2.10;2.00;;;29.90;25.90;;;;;;10455737;28;20216;-74
2021/07/10 17:08:17;;;;;;;2.00;1.90;;;29.90;26.40;;;;;;10455309;28;20229;-74
2021/07/10 17:13:22;;;;;;;1.90;1.80;;;29.80;26.50;;;;;;10455549;28;20708;-74
2021/07/10 17:18:25;;;;;;;2.03;1.93;;;29.80;26.20;;;;;;10455006;28;20316;-74
2021/07/10 17:23:29;;;;;;;1.90;1.80;;;29.90;26.60;;;;;;10449979;28;20248;-74
2021/07/10 17:28:33;;;;;;;2.37;2.10;;;29.90;26.60;;;;;;10456088;28;20229;-74
2021/07/10 17:33:37;;;;;;;2.60;2.40;;;29.90;26.40;;;;;;10454679;28;20237;-74
2021/07/10 17:38:40;;;;;;;2.07;1.97;;;29.80;26.90;;;;;;10454351;28;20228;-74
2021/07/10 17:43:45;;;;;;;1.97;1.87;;;29.80;26.80;;;;;;10439141;28;20673;-74
2021/07/10 17:48:48;;;;;;;1.93;1.83;;;29.60;26.60;;;;;;10451109;28;20251;-75
2021/07/10 17:53:51;;;;;;;1.90;1.80;;;29.50;27.00;;;;;;10451882;28;20227;-75
2021/07/10 17:58:57;;;;;;;2.10;2.00;;;29.30;27.40;;;;;;10450106;28;20226;-75
2021/07/10 18:04:00;;;;;;;1.90;1.80;;;29.20;27.10;;;;;;10442421;28;20728;-74
2021/07/10 18:09:04;;;;;;;3.53;1.97;;;28.90;27.10;;;;;;10447030;28;20225;-73
2021/07/10 18:14:09;;;;;;;1.93;1.83;;;28.80;27.50;;;;;;10447493;28;20716;-74
2021/07/10 18:19:12;;;;;;;2.10;2.00;;;28.60;27.90;;;;;;10447759;28;20227;-74
2021/07/10 18:24:15;;;;;;;2.33;2.10;;;28.60;28.20;;;;;;10442730;28;20222;-74
2021/07/10 18:29:20;;;;;;;1.90;1.83;;;28.40;28.40;;;;;;10452018;28;20616;-74
2021/07/10 18:34:24;;;;;;;2.23;2.10;;;28.30;28.60;;;;;;10454027;28;20259;-74
2021/07/10 18:39:27;;;;;;;2.20;2.10;;;28.20;28.50;;;;;;10447401;28;20231;-74
2021/07/10 18:44:31;;;;;;;2.00;1.90;;;28.10;28.70;;;;;;10442191;28;20225;-74
2021/07/10 18:49:34;;;;;;;2.00;1.90;;;27.80;28.70;;;;;;10448301;28;20237;-74
2021/07/10 18:54:38;;;;;;;2.20;2.10;;;27.80;28.90;;;;;;10454595;28;20224;-74
2021/07/10 18:59:42;;;;;;;2.30;2.10;;;27.70;29.20;;;;;;10435710;28;20225;-74
2021/07/10 19:04:45;;;;;;;2.50;2.40;;;27.60;29.90;;;;;;10443641;28;20247;-74
2021/07/10 19:09:49;;;;;;;2.53;2.43;;;27.50;30.00;;;;;;10440769;28;20403;-74
2021/07/10 19:14:53;;;;;;;3.13;2.13;;;27.30;29.90;;;;;;10450384;28;20235;-74
2021/07/10 19:20:00;;;;;;;2.27;2.03;;;27.20;29.80;;;;;;10449767;28;20229;-74
2021/07/10 19:25:05;;;;;;;2.80;2.60;;;27.10;29.80;;;;;;10438692;28;20231;-74
2021/07/10 19:30:16;;;;;;;2.43;2.20;;;27.00;30.10;;;;;;10440966;28;20221;-73
2021/07/10 19:35:19;;;;;;;2.40;2.30;;;26.90;30.60;;;;;;10445485;28;20220;-74
2021/07/10 19:40:23;;;;;;;2.17;2.07;;;26.90;30.30;;;;;;10444229;28;20235;-73
2021/07/10 19:45:27;;;;;;;2.50;2.30;;;26.70;30.50;;;;;;10446236;28;20224;-74
2021/07/10 19:50:33;;;;;;;2.40;2.20;;;26.60;31.10;;;;;;10438901;28;20316;-74
2021/07/10 19:55:37;;;;;;;2.20;2.07;;;26.50;31.00;;;;;;10442168;28;20316;-74
2021/07/10 20:00:42;;;;;;;2.03;1.93;;;26.40;31.00;;;;;;10433115;28;20229;-74
2021/07/10 20:05:45;;;;;;;2.20;2.10;;;26.30;31.10;;;;;;10432003;28;20236;-73
2021/07/10 20:10:48;;;;;;;2.27;2.07;;;26.20;31.00;;;;;;10434866;28;20229;-74
2021/07/10 20:15:53;;;;;;;2.87;2.67;;;26.00;31.00;;;;;;10434940;28;20225;-74
2021/07/10 20:20:56;;;;;;;3.77;3.40;;;25.90;31.30;;;;;;10426837;28;20616;-75
2021/07/10 20:26:00;;;;;;;3.17;2.70;;;25.80;32.20;;;;;;10433125;28;20244;-73
2021/07/10 20:31:04;;;;;;;3.50;3.23;;;25.70;31.80;;;;;;10432533;28;20217;-72
2021/07/10 20:36:08;;;;;;;3.50;3.30;;;25.60;31.90;;;;;;10428109;28;20224;-73
2021/07/10 20:41:12;;;;;;;4.40;3.33;;;25.40;31.90;;;;;;10430312;28;20231;-73
2021/07/10 20:46:17;;;;;;;2.60;2.40;;;25.40;32.00;;;;;;10433201;28;20719;-73
2021/07/10 20:51:20;;;;;;;2.67;2.47;;;25.30;32.60;;;;;;10431436;28;20228;-73
2021/07/10 20:56:24;;;;;;;2.57;2.47;;;25.20;32.40;;;;;;10428819;28;20221;-73
2021/07/10 21:01:29;;;;;;;3.30;2.50;;;25.10;32.60;;;;;;10426714;28;20264;-73
2021/07/10 21:06:33;;;;;;;3.17;2.97;;;24.90;32.80;;;;;;10434535;28;20286;-73
2021/07/10 21:11:36;;;;;;;2.93;2.60;;;24.80;32.80;;;;;;10432128;28;20334;-73
2021/07/10 21:16:42;;;;;;;3.77;3.10;;;24.70;33.00;;;;;;10426855;28;20633;-73
2021/07/10 21:21:46;;;;;;;3.07;2.87;;;24.50;33.30;;;;;;10431090;28;20221;-73
2021/07/10 21:26:50;;;;;;;6.40;3.27;;;24.40;33.10;;;;;;10433362;28;20232;-73
2021/07/10 21:31:54;;;;;;;3.10;2.80;;;24.10;33.20;;;;;;10435646;28;20233;-73
2021/07/10 21:36:58;;;;;;;2.90;2.70;;;23.90;34.00;;;;;;10439581;28;20216;-74
2021/07/10 21:42:01;;;;;;;3.20;2.70;;;23.80;34.10;;;;;;10435345;28;20761;-74
2021/07/10 21:47:06;;;;;;;3.73;2.53;;;23.70;34.50;;;;;;10437468;28;20587;-75
2021/07/10 21:52:09;;;;;;;3.47;3.17;;;23.70;35.00;;;;;;10452732;28;20307;-75
2021/07/10 21:57:12;;;;;;;2.83;2.63;;;23.70;34.70;;;;;;10459595;28;21039;-76
2021/07/10 22:02:17;;;;;;;3.60;3.40;;;23.60;34.70;;;;;;10451990;28;20221;-76
2021/07/10 22:07:20;;;;;;;3.23;3.03;;;23.60;35.70;;;;;;10456371;28;20689;-76
2021/07/10 22:12:23;;;;;;;2.80;2.60;;;23.50;35.00;;;;;;10448038;28;20237;-76
2021/07/10 22:17:28;;;;;;;2.80;2.60;;;23.50;35.20;;;;;;10449218;28;20685;-76
2021/07/10 22:22:31;;;;;;;2.90;2.67;;;23.50;35.90;;;;;;10451473;28;20240;-76
2021/07/10 22:27:34;;;;;;;3.10;2.90;;;23.50;35.50;;;;;;10453277;28;20232;-76
2021/07/10 22:32:39;;;;;;;3.00;2.80;;;23.40;35.40;;;;;;10449792;28;20605;-76
2021/07/10 22:37:42;;;;;;;3.63;3.33;;;23.40;36.30;;;;;;10448814;28;20240;-76
2021/07/10 22:42:45;;;;;;;3.77;3.37;;;23.30;35.80;;;;;;10450802;28;20239;-76
2021/07/10 22:47:50;;;;;;;4.30;3.20;;;23.30;35.70;;;;;;10455448;28;20607;-76
2021/07/10 22:52:53;;;;;;;2.80;2.60;;;23.20;36.40;;;;;;10455416;28;20232;-76
2021/07/10 22:57:57;;;;;;;2.77;2.57;;;23.20;35.90;;;;;;10451053;28;20240;-76
2021/07/10 23:03:01;;;;;;;3.83;3.27;;;23.10;36.00;;;;;;10445906;28;20228;-76
2021/07/10 23:08:05;;;;;;;3.50;3.30;;;23.00;36.80;;;;;;10446929;28;20225;-75
2021/07/10 23:13:08;;;;;;;4.30;4.00;;;22.90;36.60;;;;;;10450257;28;20216;-75
2021/07/10 23:18:15;;;;;;;4.57;3.20;;;22.70;36.70;;;;;;10453152;28;20217;-75
2021/07/10 23:23:19;;;;;;;3.83;3.33;;;22.70;37.40;;;;;;10441318;28;20228;-76
2021/07/10 23:28:22;;;;;;;3.50;3.20;;;22.70;37.30;;;;;;10450725;28;20237;-76
2021/07/10 23:33:26;;;;;;;3.30;3.00;;;22.50;37.00;;;;;;10450463;28;20227;-75
2021/07/10 23:38:31;;;;;;;3.43;3.20;;;22.40;37.70;;;;;;10454082;28;20763;-76
2021/07/10 23:43:34;;;;;;;3.50;3.20;;;22.20;37.40;;;;;;10458686;28;20220;-76
2021/07/10 23:48:39;;;;;;;3.60;3.30;;;22.10;38.10;;;;;;10448637;28;20232;-75
2021/07/10 23:53:42;;;;;;;3.40;3.20;;;22.00;38.30;;;;;;10450049;28;20255;-76
2021/07/10 23:58:45;;;;;;;3.23;3.03;;;22.00;38.30;;;;;;10448352;28;20233;-75
